Rincon, Georgia
Current Conditions -  °F | °C
As of 10:53 AM on Sunday 21 Dec 2014 (Local Time) from KSAV Reporting Station
Light Rain Light Rain  
Wind Chill: 45°   Ceiling: 600
Heat Index: 49°   Visibility: 6mi
Dew Point: 46°   Wind: 8mph
Humidity: 90%   Direction: 40°NE
Pressure: 30.21"   Gusts: NA
Location:  32.3°N, 81.24°W
Report Text: KSAV 211553Z 04007KT 6SM -RA BR OVC006 09/08 A3021 RMK AO2 RAB43 SLP230 P0000 T00940078
Loading
Personal Weather Stations






























Interactive Weather Map New forecast layout! Learn more

10-Day Weather Forecast

Advertisements
Track Severe Weather on mobile